Time;durP1;ratioP1;P1;durP2;ratioP2;P2;SDS_P1;SDS_P2;PMS_P1;PMS_P2;Temp;Humidity;BMP_temperature;BMP_pressure;BME280_temperature;BME280_humidity;BME280_pressure;Samples;Min_cycle;Max_cycle;Signal;HPM_P1;HPM_P2
2023/09/30 00:02:22;;;;;;;3.40;2.60;;;;;;;17.15;55.95;100718.91;10503121;28;20234;-69
2023/09/30 00:07:24;;;;;;;6.22;3.35;;;;;;;17.95;54.34;100678.34;10506069;28;20262;-69
2023/09/30 00:12:26;;;;;;;2.95;2.20;;;;;;;17.77;53.79;100740.41;10505034;28;20223;-69
2023/09/30 00:17:28;;;;;;;3.85;2.40;;;;;;;18.14;53.60;100725.34;10510321;28;20317;-69
2023/09/30 00:22:30;;;;;;;5.93;2.40;;;;;;;18.39;53.00;100730.09;10511481;28;20291;-69
2023/09/30 00:27:32;;;;;;;7.13;2.58;;;;;;;19.81;49.69;100710.88;10509300;28;20248;-69
2023/09/30 00:32:34;;;;;;;3.90;2.20;;;;;;;20.64;48.50;100720.38;10511162;28;20325;-69
2023/09/30 00:37:37;;;;;;;4.72;2.15;;;;;;;20.65;48.83;100729.41;10506882;28;20335;-70
2023/09/30 00:42:39;;;;;;;2.97;2.30;;;;;;;20.20;48.80;100774.03;10506231;28;20321;-69
2023/09/30 00:47:41;;;;;;;3.35;2.10;;;;;;;19.91;49.27;100797.28;10508146;28;20230;-70
2023/09/30 00:52:45;;;;;;;3.58;2.45;;;;;;;18.86;51.82;100730.75;10506116;28;20255;-69
2023/09/30 00:57:46;;;;;;;2.85;2.42;;;;;;;20.53;48.88;100728.50;10506091;28;20594;-68
2023/09/30 01:02:48;;;;;;;3.83;1.95;;;;;;;20.49;48.93;100755.31;10506248;28;20312;-70
2023/09/30 01:07:50;;;;;;;3.17;2.35;;;;;;;20.71;48.09;100779.31;10479797;28;20304;-70
2023/09/30 01:12:52;;;;;;;3.83;2.42;;;;;;;21.09;47.50;100743.66;10474579;28;20234;-70
2023/09/30 01:17:54;;;;;;;3.70;2.42;;;;;;;19.67;50.74;100725.63;10475097;28;20239;-69
2023/09/30 01:22:57;;;;;;;2.30;1.98;;;;;;;20.64;48.29;100744.88;10474240;28;20592;-70
2023/09/30 01:28:00;;;;;;;2.83;2.22;;;;;;;19.85;49.89;100741.13;10474128;28;20285;-69
2023/09/30 01:33:02;;;;;;;3.80;2.30;;;;;;;19.43;50.46;100766.06;10474272;28;21001;-69
2023/09/30 01:38:04;;;;;;;2.97;2.50;;;;;;;17.11;55.88;100698.75;10475433;28;20203;-70
2023/09/30 01:43:06;;;;;;;3.22;2.10;;;;;;;18.22;52.72;100700.75;10455790;28;20384;-70
2023/09/30 01:48:10;;;;;;;4.75;2.58;;;;;;;18.10;53.61;100681.63;10472301;28;20293;-70
2023/09/30 01:53:12;;;;;;;3.42;2.40;;;;;;;17.54;54.67;100674.81;10448269;28;20554;-72
2023/09/30 01:58:14;;;;;;;3.57;2.20;;;;;;;17.08;55.11;100721.59;10473529;28;20234;-72
2023/09/30 02:03:17;;;;;;;2.63;2.22;;;;;;;17.43;54.98;100686.28;10468579;28;20620;-72
2023/09/30 02:08:18;;;;;;;3.83;3.20;;;;;;;16.73;56.07;100731.66;10472025;28;20239;-74
2023/09/30 02:13:20;;;;;;;7.10;4.53;;;;;;;17.67;53.76;100711.06;10473196;28;20313;-72
2023/09/30 02:18:23;;;;;;;4.63;3.55;;;;;;;17.56;54.22;100726.00;10471662;28;20237;-72
2023/09/30 02:23:25;;;;;;;6.67;2.70;;;;;;;19.61;50.52;100639.66;10476975;28;20273;-72
2023/09/30 02:28:26;;;;;;;2.50;2.30;;;;;;;19.88;49.93;100687.19;10498792;28;20230;-71
2023/09/30 02:33:28;;;;;;;2.93;2.67;;;;;;;20.51;48.43;100687.94;10484001;28;20230;-72
2023/09/30 02:38:30;;;;;;;3.40;2.60;;;;;;;19.86;49.61;100757.19;10505287;28;20257;-72
2023/09/30 02:43:32;;;;;;;2.53;2.33;;;;;;;20.13;48.95;100733.31;10480318;28;20242;-72
2023/09/30 02:48:34;;;;;;;4.45;2.30;;;;;;;19.93;49.15;100773.44;10482789;28;20875;-72
2023/09/30 02:53:36;;;;;;;2.88;2.58;;;;;;;18.83;51.16;100780.81;10482487;28;20283;-73
2023/09/30 02:58:38;;;;;;;3.65;2.65;;;;;;;20.19;48.63;100737.03;10498127;28;20235;-72
2023/09/30 03:03:40;;;;;;;2.67;2.20;;;;;;;18.69;51.12;100821.72;10494407;28;20235;-72
2023/09/30 03:08:41;;;;;;;4.35;2.22;;;;;;;20.04;49.38;100731.97;10460149;28;20231;-72
2023/09/30 03:13:43;;;;;;;2.83;2.20;;;;;;;18.99;51.14;100784.91;10460674;28;20249;-72
2023/09/30 03:18:45;;;;;;;3.20;2.13;;;;;;;19.43;50.02;100748.97;10469039;28;20230;-73
2023/09/30 03:23:47;;;;;;;4.00;2.83;;;;;;;18.00;52.53;100786.00;10496280;28;20235;-72
2023/09/30 03:28:49;;;;;;;2.88;2.40;;;;;;;19.13;51.15;100687.19;10480828;28;20226;-72
2023/09/30 03:33:54;;;;;;;3.70;2.30;;;;;;;18.48;52.12;100719.88;10503525;28;20234;-72
2023/09/30 03:39:00;;;;;;;3.25;2.38;;;;;;;19.20;51.20;100702.38;10502519;28;20774;-72
2023/09/30 03:44:02;;;;;;;2.58;2.10;;;;;;;19.61;49.98;100708.34;10499280;28;20226;-72
2023/09/30 03:49:04;;;;;;;2.60;2.30;;;;;;;18.59;51.61;100763.38;10507001;28;20625;-72
2023/09/30 03:54:08;;;;;;;5.05;2.40;;;;;;;19.23;50.41;100716.53;10507876;28;20226;-72
2023/09/30 03:59:10;;;;;;;3.92;2.22;;;;;;;18.71;51.22;100750.00;10471641;28;20613;-72
2023/09/30 04:04:12;;;;;;;2.60;2.40;;;;;;;18.14;52.39;100767.88;10505940;28;20294;-72
2023/09/30 04:09:13;;;;;;;5.03;3.08;;;;;;;16.51;56.34;100755.28;10508405;28;20233;-72
2023/09/30 04:14:17;;;;;;;3.30;2.83;;;;;;;16.10;57.18;100767.69;10506629;28;21052;-72
2023/09/30 04:19:18;;;;;;;4.93;2.95;;;;;;;15.93;58.12;100742.03;10509043;28;20627;-70
2023/09/30 04:24:20;;;;;;;4.90;3.20;;;;;;;16.02;58.32;100703.88;10504530;28;20348;-73
2023/09/30 04:29:23;;;;;;;3.70;2.97;;;;;;;15.94;58.38;100695.91;10505966;28;20262;-73
2023/09/30 04:34:25;;;;;;;4.00;2.60;;;;;;;16.27;57.27;100710.69;10485755;28;20492;-72
2023/09/30 04:39:26;;;;;;;2.80;2.60;;;;;;;17.81;54.06;100669.38;10487408;28;20235;-72
2023/09/30 04:44:30;;;;;;;3.23;2.80;;;;;;;17.35;54.59;100722.47;10491177;28;20239;-73
2023/09/30 04:49:32;;;;;;;3.73;2.70;;;;;;;17.04;55.06;100779.84;10501453;28;20696;-73
2023/09/30 04:54:35;;;;;;;3.20;2.87;;;;;;;16.01;57.53;100776.94;10505971;28;20248;-73
2023/09/30 04:59:37;;;;;;;3.33;2.90;;;;;;;15.11;59.69;100773.81;10468490;28;20245;-73
2023/09/30 05:04:38;;;;;;;3.87;3.30;;;;;;;18.32;52.93;100675.09;10508294;28;20228;-72
2023/09/30 05:09:41;;;;;;;3.00;2.70;;;;;;;17.45;53.81;100754.53;10478541;28;20250;-72
2023/09/30 05:14:43;;;;;;;5.13;2.70;;;;;;;16.57;55.20;100781.50;10509644;28;20272;-72
2023/09/30 05:19:45;;;;;;;3.60;2.53;;;;;;;16.33;56.73;100732.34;10491166;28;20254;-72
2023/09/30 05:24:47;;;;;;;4.57;2.70;;;;;;;17.59;53.56;100741.81;10467108;28;20314;-72
2023/09/30 05:29:49;;;;;;;3.87;2.80;;;;;;;17.29;53.71;100777.41;10475235;28;20246;-72
2023/09/30 05:34:52;;;;;;;5.47;2.93;;;;;;;15.74;57.29;100830.72;10473313;28;20285;-72
2023/09/30 05:39:54;;;;;;;3.13;2.83;;;;;;;19.07;50.35;100726.06;10473161;28;20241;-72
2023/09/30 05:44:56;;;;;;;3.97;2.50;;;;;;;17.13;54.31;100799.41;10475235;28;20365;-72
2023/09/30 05:49:58;;;;;;;4.20;3.07;;;;;;;16.23;55.70;100848.78;10454568;28;20237;-71
2023/09/30 05:55:00;;;;;;;3.57;2.87;;;;;;;16.86;54.57;100820.09;10473928;28;20319;-72
2023/09/30 06:00:28;;;;;;;3.77;3.37;;;;;;;15.73;57.83;100828.22;10455066;28;20318;-72
2023/09/30 06:05:30;;;;;;;6.30;4.30;;;;;;;15.36;58.66;100820.13;10473657;28;20781;-71
2023/09/30 06:10:32;;;;;;;4.63;2.80;;;;;;;15.32;58.96;100813.47;10472862;28;20239;-71
2023/09/30 06:15:40;;;;;;;3.50;3.20;;;;;;;14.94;59.75;100838.72;10486915;28;20223;-71
2023/09/30 06:20:42;;;;;;;4.37;2.77;;;;;;;18.95;51.14;100772.03;10455022;28;20417;-71
2023/09/30 06:25:43;;;;;;;5.17;3.13;;;;;;;17.62;52.96;100876.72;10472034;28;20314;-71
2023/09/30 06:30:46;;;;;;;3.23;2.77;;;;;;;18.53;51.83;100796.75;10472594;28;20276;-71
2023/09/30 06:35:51;;;;;;;3.70;3.00;;;;;;;16.17;55.37;100935.13;10473154;28;20353;-71
2023/09/30 06:40:53;;;;;;;5.20;3.10;;;;;;;17.85;53.06;100802.44;10476440;28;20227;-71
2023/09/30 06:45:55;;;;;;;3.93;3.07;;;;;;;17.70;52.33;100857.63;10471063;28;20263;-71
2023/09/30 06:50:58;;;;;;;4.97;3.00;;;;;;;17.87;51.92;100827.47;10471601;28;20227;-71
2023/09/30 06:56:04;;;;;;;4.37;3.40;;;;;;;18.19;51.37;100861.00;10473787;28;20234;-71
2023/09/30 07:01:07;;;;;;;3.57;3.27;;;;;;;16.59;54.07;100936.97;10471960;28;20729;-71
2023/09/30 07:06:09;;;;;;;4.60;3.90;;;;;;;17.66;52.44;100869.91;10470637;28;20722;-72
2023/09/30 07:11:11;;;;;;;6.60;3.50;;;;;;;17.35;53.38;100873.97;10473050;28;20321;-71
2023/09/30 07:16:12;;;;;;;5.30;3.80;;;;;;;16.23;54.99;100921.69;10487157;28;20484;-71
2023/09/30 07:21:15;;;;;;;8.90;4.23;;;;;;;16.98;52.83;100945.56;10477337;28;20592;-71
2023/09/30 07:26:16;;;;;;;4.87;3.70;;;;;;;17.72;52.45;100855.53;10453463;28;20744;-72
2023/09/30 07:31:18;;;;;;;6.47;3.80;;;;;;;18.34;50.83;100901.44;10490922;28;20226;-72
2023/09/30 07:36:20;;;;;;;6.53;3.73;;;;;;;17.64;52.51;100853.03;10514458;28;20230;-72
2023/09/30 07:41:22;;;;;;;5.60;3.83;;;;;;;17.84;51.29;100909.09;10512071;28;20253;-71
2023/09/30 07:46:23;;;;;;;6.73;4.23;;;;;;;17.31;51.64;100890.81;10493641;28;20370;-72
2023/09/30 07:51:25;;;;;;;5.03;3.80;;;;;;;17.75;50.98;100905.75;10509528;28;20230;-69
2023/09/30 07:56:27;;;;;;;5.53;3.63;;;;;;;17.34;51.13;100955.31;10512145;28;20238;-70
2023/09/30 08:01:30;;;;;;;9.43;4.00;;;;;;;18.71;49.28;100858.44;10513265;28;20238;-70
2023/09/30 08:06:31;;;;;;;6.23;4.03;;;;;;;18.07;49.65;100914.94;10475035;28;20238;-70
2023/09/30 08:11:34;;;;;;;8.10;4.93;;;;;;;17.61;50.86;100866.94;10471067;28;20281;-70
2023/09/30 08:16:37;;;;;;;7.20;3.87;;;;;;;18.17;49.56;100905.56;10471567;28;20312;-70
2023/09/30 08:21:38;;;;;;;7.82;4.32;;;;;;;17.57;49.73;100975.81;10476360;28;20738;-69
2023/09/30 08:26:41;;;;;;;5.45;4.18;;;;;;;18.30;49.75;100877.69;10466351;28;20730;-70
2023/09/30 08:31:42;;;;;;;7.03;4.00;;;;;;;18.90;48.30;100872.16;10470681;28;20555;-69
2023/09/30 08:36:44;;;;;;;6.15;4.05;;;;;;;18.16;48.87;100933.72;10466638;28;20235;-69
2023/09/30 08:41:46;;;;;;;5.87;3.70;;;;;;;18.95;48.56;100842.53;10467873;28;20612;-69
2023/09/30 08:46:50;;;;;;;8.10;5.30;;;;;;;18.34;48.98;100930.38;10471804;28;20352;-69
2023/09/30 08:51:57;;;;;;;7.53;5.07;;;;;;;16.94;52.18;100938.88;10473196;28;20231;-70
2023/09/30 08:57:01;;;;;;;7.75;4.82;;;;;;;18.38;49.63;100910.81;10468867;28;20227;-70
2023/09/30 09:02:09;;;;;;;5.95;3.92;;;;;;;19.38;47.83;100890.72;10464076;28;20285;-70
2023/09/30 09:07:11;;;;;;;7.03;4.03;;;;;;;17.93;49.28;100999.91;10511930;28;20231;-70
2023/09/30 09:12:20;;;;;;;6.97;4.73;;;;;;;17.91;50.06;100913.44;10510307;28;20709;-70
2023/09/30 09:17:22;;;;;;;7.75;4.45;;;;;;;17.86;50.10;100925.94;10484373;28;20229;-70
2023/09/30 09:22:24;;;;;;;5.85;4.07;;;;;;;19.52;47.75;100835.34;10508647;28;20350;-70
2023/09/30 09:27:26;;;;;;;7.57;3.67;;;;;;;19.23;47.23;100884.75;10513509;28;20413;-70
2023/09/30 09:32:27;;;;;;;5.20;3.42;;;;;;;20.26;45.92;100881.84;10510663;28;20242;-69
2023/09/30 09:37:32;;;;;;;5.93;3.97;;;;;;;19.35;48.50;100842.31;10511139;28;20570;-69
2023/09/30 09:42:34;;;;;;;5.10;3.90;;;;;;;19.72;47.36;100861.53;10500779;28;20811;-70
2023/09/30 09:47:38;;;;;;;7.57;4.03;;;;;;;17.62;50.13;100930.88;10509913;28;20227;-70
2023/09/30 09:52:42;;;;;;;5.75;3.95;;;;;;;20.33;46.50;100808.41;10511327;28;20617;-70
2023/09/30 09:57:46;;;;;;;7.53;4.10;;;;;;;18.60;48.99;100891.59;10513018;28;20231;-71
2023/09/30 10:02:48;;;;;;;6.82;4.38;;;;;;;17.43;51.38;100870.25;10510321;28;20359;-70
2023/09/30 10:08:09;;;;;;;6.70;3.85;;;;;;;19.71;48.70;100779.25;10493572;28;20538;-70
2023/09/30 10:13:49;;;;;;;6.03;3.88;;;;;;;18.39;49.96;100841.19;10510098;28;20337;-70
2023/09/30 10:19:30;;;;;;;7.30;4.20;;;;;;;17.49;51.23;100860.47;10503710;28;20226;-70
2023/09/30 10:24:32;;;;;;;9.32;5.28;;;;;;;19.62;47.38;100790.59;10503900;28;20234;-70
2023/09/30 10:29:43;;;;;;;8.02;4.65;;;;;;;19.50;47.00;100874.59;10504661;28;20321;-70
2023/09/30 10:34:51;;;;;;;7.30;4.00;;;;;;;20.07;46.63;100807.56;10509915;28;20794;-70
2023/09/30 10:39:54;;;;;;;6.55;4.28;;;;;;;18.96;47.88;100838.75;10510641;28;20235;-70
2023/09/30 10:44:56;;;;;;;8.45;3.65;;;;;;;21.03;45.06;100804.44;10508139;28;20238;-69
2023/09/30 10:49:58;;;;;;;6.13;3.45;;;;;;;20.28;44.82;100879.72;10509833;28;20492;-70
2023/09/30 10:55:05;;;;;;;6.07;3.40;;;;;;;20.56;45.42;100810.41;10493524;28;20242;-70
2023/09/30 11:06:19;;;;;;;7.03;3.53;;;;;;;18.86;47.67;100808.53;10497138;27;2136185;-69
2023/09/30 11:11:48;;;;;;;6.95;3.50;;;;;;;19.08;47.41;100747.53;10545904;28;20730;-70
2023/09/30 11:16:51;;;;;;;5.15;3.15;;;;;;;19.54;46.87;100748.25;10542967;28;20222;-69
2023/09/30 11:21:54;;;;;;;5.53;3.63;;;;;;;18.67;47.14;100813.81;10539270;28;20223;-69
2023/09/30 11:26:56;;;;;;;6.75;3.92;;;;;;;18.58;46.92;100815.09;10537555;28;20253;-69
2023/09/30 11:31:58;;;;;;;5.82;2.97;;;;;;;19.81;46.04;100748.88;10537482;28;20227;-69
2023/09/30 11:37:01;;;;;;;5.55;3.30;;;;;;;18.63;48.04;100770.03;10523628;28;20234;-69
2023/09/30 11:42:14;;;;;;;7.85;3.70;;;;;;;18.39;47.88;100855.59;10577701;28;20283;-69
2023/09/30 11:47:28;;;;;;;7.80;3.47;;;;;;;17.80;48.27;100823.91;10563809;28;20341;-69
2023/09/30 11:52:29;;;;;;;7.38;3.53;;;;;;;19.06;46.48;100779.44;10561362;28;20233;-69
2023/09/30 11:57:31;;;;;;;4.63;2.97;;;;;;;18.64;46.97;100768.16;10557712;28;20233;-70
2023/09/30 12:02:34;;;;;;;5.22;3.20;;;;;;;18.98;46.42;100750.72;10538422;28;20287;-69
2023/09/30 12:07:37;;;;;;;10.35;4.05;;;;;;;18.80;44.75;100830.03;10535598;28;20236;-69
2023/09/30 12:12:39;;;;;;;5.70;3.33;;;;;;;20.30;43.40;100796.06;10536511;28;20402;-69
2023/09/30 12:17:42;;;;;;;6.50;3.42;;;;;;;20.14;43.37;100777.59;10503017;28;20226;-69
2023/09/30 12:22:43;;;;;;;7.28;3.97;;;;;;;19.35;43.33;100793.47;10516081;28;20614;-69
2023/09/30 12:27:46;;;;;;;4.40;3.25;;;;;;;20.18;41.49;100789.72;10516854;28;20226;-69
2023/09/30 12:32:48;;;;;;;6.95;3.83;;;;;;;20.85;41.59;100780.81;10551107;28;20240;-69
2023/09/30 12:37:50;;;;;;;7.15;3.58;;;;;;;21.25;40.54;100753.06;10515379;28;20202;-71
2023/09/30 12:42:52;;;;;;;5.13;3.50;;;;;;;20.24;44.19;100816.00;10491601;28;20691;-69
2023/09/30 12:47:56;;;;;;;9.25;3.70;;;;;;;19.65;44.94;100825.47;10511769;28;20301;-70
2023/09/30 12:52:59;;;;;;;7.03;3.60;;;;;;;19.73;45.17;100785.28;10513501;28;20681;-69
2023/09/30 12:58:00;;;;;;;6.82;3.67;;;;;;;19.84;42.96;100772.88;10511587;28;20199;-69
2023/09/30 13:03:03;;;;;;;7.60;4.10;;;;;;;20.23;43.09;100702.94;10511534;28;20238;-69
2023/09/30 13:08:05;;;;;;;9.18;4.10;;;;;;;20.26;42.25;100713.34;10495650;28;20199;-69
2023/09/30 13:13:06;;;;;;;5.90;3.28;;;;;;;19.66;42.81;100741.06;10512725;28;20593;-70
2023/09/30 13:18:08;;;;;;;7.45;3.70;;;;;;;19.15;42.99;100763.78;10508956;28;20314;-69
2023/09/30 13:23:10;;;;;;;6.05;3.78;;;;;;;18.42;43.65;100792.84;10498245;28;20361;-69
2023/09/30 13:28:11;;;;;;;6.85;3.90;;;;;;;18.58;43.47;100756.28;10500543;28;20246;-69
2023/09/30 13:33:13;;;;;;;5.55;3.22;;;;;;;20.88;40.94;100693.31;10480824;28;20279;-68
2023/09/30 13:38:16;;;;;;;6.60;4.15;;;;;;;20.10;42.42;100676.69;10501794;28;20251;-69
2023/09/30 13:43:18;;;;;;;6.28;3.78;;;;;;;20.01;41.81;100750.56;10504334;28;20556;-68
2023/09/30 13:48:19;;;;;;;7.40;3.92;;;;;;;19.62;41.62;100777.03;10503790;28;20716;-69
2023/09/30 13:53:21;;;;;;;6.50;3.97;;;;;;;19.71;42.10;100705.13;10496925;28;20313;-70
2023/09/30 13:58:23;;;;;;;5.80;3.25;;;;;;;20.57;40.90;100681.59;10500617;28;20241;-71
2023/09/30 14:03:25;;;;;;;10.00;4.30;;;;;;;20.61;40.14;100728.19;10501814;28;20226;-71
2023/09/30 14:08:27;;;;;;;7.13;3.63;;;;;;;20.57;40.59;100714.22;10495876;28;20232;-72
2023/09/30 14:13:29;;;;;;;7.28;3.75;;;;;;;19.95;41.11;100666.22;10479101;28;20342;-73
2023/09/30 14:18:31;;;;;;;6.68;4.32;;;;;;;20.55;40.71;100615.75;10500634;28;20657;-74
2023/09/30 14:23:32;;;;;;;8.35;4.38;;;;;;;20.67;39.57;100689.22;10497469;28;20654;-73
2023/09/30 14:28:34;;;;;;;7.25;3.90;;;;;;;20.41;40.29;100642.31;10511148;28;20245;-70
2023/09/30 14:33:37;;;;;;;5.97;3.42;;;;;;;21.04;39.35;100621.09;10508729;28;20236;-71
2023/09/30 14:38:39;;;;;;;7.07;3.70;;;;;;;22.02;37.75;100634.25;10511055;28;20339;-73
2023/09/30 14:43:41;;;;;;;7.80;4.20;;;;;;;20.92;39.78;100680.94;10491469;28;20318;-74
2023/09/30 14:48:43;;;;;;;8.77;3.95;;;;;;;20.26;40.53;100707.06;10500286;28;20226;-73
2023/09/30 14:53:45;;;;;;;6.05;3.67;;;;;;;21.00;40.19;100647.97;10544201;28;20730;-73
2023/09/30 14:58:47;;;;;;;7.65;4.45;;;;;;;20.17;40.30;100682.09;10545471;28;20697;-73
2023/09/30 15:03:48;;;;;;;5.85;3.67;;;;;;;20.76;40.11;100651.63;10526213;28;20225;-71
2023/09/30 15:08:50;;;;;;;6.65;3.88;;;;;;;20.66;39.99;100676.66;10520619;28;20229;-71
2023/09/30 15:13:52;;;;;;;6.78;3.88;;;;;;;20.46;40.12;100675.06;10541136;28;20317;-73
2023/09/30 15:18:54;;;;;;;8.25;3.88;;;;;;;20.64;40.28;100636.09;10544205;28;20233;-71
2023/09/30 15:23:56;;;;;;;7.22;4.13;;;;;;;20.67;40.81;100632.91;10515291;28;20252;-71
2023/09/30 15:28:57;;;;;;;6.97;3.85;;;;;;;21.76;39.43;100618.16;10509642;28;20607;-71
2023/09/30 15:34:00;;;;;;;8.95;4.28;;;;;;;21.49;39.19;100598.78;10526530;28;20226;-71
2023/09/30 15:39:02;;;;;;;7.47;3.80;;;;;;;21.28;39.49;100613.78;10543053;28;20633;-71
2023/09/30 15:44:05;;;;;;;8.15;4.28;;;;;;;20.22;40.99;100608.06;10543484;28;20232;-71
2023/09/30 15:49:07;;;;;;;8.55;4.00;;;;;;;21.71;39.61;100579.09;10541255;28;20231;-73
2023/09/30 15:54:09;;;;;;;10.23;4.05;;;;;;;22.01;39.01;100583.53;10514352;28;20234;-70
2023/09/30 15:59:13;;;;;;;6.38;3.70;;;;;;;21.79;39.86;100611.41;10505470;28;20258;-71
2023/09/30 16:04:18;;;;;;;6.97;3.50;;;;;;;21.32;40.95;100584.19;10505151;28;20649;-71
2023/09/30 16:09:20;;;;;;;6.50;4.28;;;;;;;21.36;40.94;100610.75;10523934;28;20234;-71
2023/09/30 16:14:22;;;;;;;7.47;3.75;;;;;;;21.95;40.18;100571.72;10549743;28;20320;-70
2023/09/30 16:19:23;;;;;;;7.47;3.92;;;;;;;20.73;42.59;100543.31;10546509;28;20225;-72
2023/09/30 16:24:25;;;;;;;8.40;4.18;;;;;;;21.51;41.83;100561.25;10548266;28;20607;-73
2023/09/30 16:29:27;;;;;;;7.18;3.70;;;;;;;21.77;41.24;100567.22;10553555;28;20320;-72
2023/09/30 16:34:28;;;;;;;7.28;3.92;;;;;;;20.68;42.43;100639.19;10553583;28;20222;-72
2023/09/30 16:39:31;;;;;;;7.20;3.78;;;;;;;20.90;42.97;100554.38;10549031;28;20310;-72
2023/09/30 16:44:32;;;;;;;6.60;3.97;;;;;;;22.08;41.17;100578.78;10548030;28;20635;-72
2023/09/30 16:49:34;;;;;;;6.40;4.13;;;;;;;21.90;41.46;100601.56;10543098;28;20383;-72
2023/09/30 16:54:37;;;;;;;7.30;4.15;;;;;;;21.92;41.37;100580.34;10552088;28;20770;-72
2023/09/30 16:59:38;;;;;;;6.70;3.75;;;;;;;20.83;42.97;100573.50;10547223;28;20709;-72
2023/09/30 17:04:44;;;;;;;7.82;3.78;;;;;;;20.07;43.36;100641.00;10549242;28;20642;-73
2023/09/30 17:09:46;;;;;;;6.05;3.63;;;;;;;20.47;43.66;100550.84;10548556;28;20252;-72
2023/09/30 17:14:47;;;;;;;8.95;3.95;;;;;;;20.90;42.90;100511.66;10526074;28;20612;-72
2023/09/30 17:19:49;;;;;;;7.00;3.85;;;;;;;20.81;42.32;100595.50;10526316;28;20218;-72
2023/09/30 17:24:51;;;;;;;7.40;4.00;;;;;;;20.20;43.40;100635.44;10548531;28;20230;-72
2023/09/30 17:29:53;;;;;;;6.38;3.85;;;;;;;20.85;43.22;100536.03;10545214;28;20287;-72
2023/09/30 17:34:55;;;;;;;10.70;4.20;;;;;;;20.44;43.63;100546.69;10539293;28;20679;-73
2023/09/30 17:39:57;;;;;;;7.70;4.22;;;;;;;20.16;43.51;100630.66;10543610;28;20240;-72
2023/09/30 17:44:58;;;;;;;7.53;3.83;;;;;;;20.42;43.75;100546.09;10544276;28;20230;-72
2023/09/30 17:50:00;;;;;;;8.20;4.03;;;;;;;20.71;42.76;100551.72;10525929;28;20279;-72
2023/09/30 17:55:03;;;;;;;6.88;4.07;;;;;;;19.84;44.27;100601.81;10544364;28;20230;-71
2023/09/30 18:00:06;;;;;;;7.20;4.07;;;;;;;20.30;43.53;100624.88;10542302;28;20700;-72
2023/09/30 18:05:08;;;;;;;6.63;3.58;;;;;;;20.07;43.91;100570.38;10536914;28;20261;-71
2023/09/30 18:10:10;;;;;;;6.88;3.95;;;;;;;20.20;43.95;100567.53;10539601;28;20226;-73
2023/09/30 18:15:12;;;;;;;6.82;3.78;;;;;;;20.92;42.98;100572.13;10538433;28;20256;-71
2023/09/30 18:20:13;;;;;;;7.97;4.15;;;;;;;19.07;45.41;100686.19;10539277;28;20315;-71
2023/09/30 18:25:16;;;;;;;6.88;4.13;;;;;;;17.83;47.71;100651.06;10521870;28;20241;-71
2023/09/30 18:30:17;;;;;;;8.23;4.55;;;;;;;17.51;48.76;100615.72;10537377;28;20230;-72
2023/09/30 18:35:19;;;;;;;11.40;4.95;;;;;;;18.23;48.02;100525.50;10544680;28;20237;-72
2023/09/30 18:40:21;;;;;;;6.57;4.38;;;;;;;17.58;48.48;100629.22;10538992;28;20230;-72
2023/09/30 18:45:25;;;;;;;6.05;4.20;;;;;;;19.38;45.89;100536.09;10542171;28;20321;-72
2023/09/30 18:50:27;;;;;;;6.97;4.75;;;;;;;19.95;45.05;100601.03;10541550;28;20222;-72
2023/09/30 18:55:28;;;;;;;7.60;4.05;;;;;;;18.67;46.61;100647.63;10526140;28;20226;-72
2023/09/30 19:00:31;;;;;;;7.80;4.60;;;;;;;17.83;47.58;100650.22;10541006;28;20292;-72
2023/09/30 19:05:34;;;;;;;7.28;4.43;;;;;;;17.71;47.93;100612.16;10540074;28;20311;-71
2023/09/30 19:10:39;;;;;;;8.00;4.25;;;;;;;17.17;48.59;100662.75;10541993;28;20234;-72
2023/09/30 19:15:42;;;;;;;9.30;4.38;;;;;;;17.91;47.82;100614.81;10494889;28;20318;-72
2023/09/30 19:20:45;;;;;;;11.18;5.50;;;;;;;18.22;47.25;100614.06;10500875;28;20322;-71
2023/09/30 19:25:48;;;;;;;9.95;5.55;;;;;;;18.88;46.61;100571.38;10519846;28;20233;-71
2023/09/30 19:30:51;;;;;;;7.77;5.10;;;;;;;18.69;47.40;100550.66;10528453;28;20329;-71
2023/09/30 19:35:53;;;;;;;8.25;5.05;;;;;;;18.61;46.48;100655.59;10522698;28;20230;-72
2023/09/30 19:40:54;;;;;;;8.15;5.43;;;;;;;19.12;45.98;100615.84;10524058;28;20337;-72
2023/09/30 19:46:02;;;;;;;8.40;4.85;;;;;;;17.82;47.88;100690.00;10522010;28;20688;-72
2023/09/30 19:51:04;;;;;;;7.72;5.07;;;;;;;16.74;50.95;100588.22;10500281;22;20231;-35
2023/09/30 19:56:09;;;;;;;6.82;4.55;;;;;;;18.79;46.73;100581.66;10433510;28;20642;-36
2023/09/30 20:01:11;;;;;;;7.47;4.63;;;;;;;16.97;49.59;100674.38;10452451;28;20253;-36
2023/09/30 20:06:21;;;;;;;9.77;5.13;;;;;;;16.62;50.76;100619.59;10412869;28;20237;-35
2023/09/30 20:11:27;;;;;;;9.13;5.23;;;;;;;16.73;50.55;100607.34;10390346;28;20237;-34
2023/09/30 20:16:29;;;;;;;8.37;5.07;;;;;;;16.17;51.45;100646.22;10431869;28;20254;-35
2023/09/30 20:21:33;;;;;;;9.53;5.43;;;;;;;16.78;51.04;100538.13;10420262;28;20235;-35
2023/09/30 20:26:37;;;;;;;8.30;4.90;;;;;;;15.56;52.73;100663.91;10436122;28;20235;-35
2023/09/30 20:31:40;;;;;;;8.20;5.10;;;;;;;15.53;53.23;100618.41;10438692;28;20236;-37
2023/09/30 20:36:44;;;;;;;9.60;5.40;;;;;;;17.20;49.77;100583.91;10435146;28;20315;-35
2023/09/30 20:41:49;;;;;;;9.33;5.00;;;;;;;16.62;51.25;100542.06;10439706;28;20317;-35
2023/09/30 20:46:50;;;;;;;9.43;5.63;;;;;;;15.43;52.67;100688.06;10403838;28;20705;-35
2023/09/30 20:51:52;;;;;;;10.93;5.87;;;;;;;15.29;53.52;100644.78;10427628;28;20254;-34
2023/09/30 20:56:54;;;;;;;9.63;5.73;;;;;;;15.25;54.26;100599.53;10441347;28;20267;-36
2023/09/30 21:01:56;;;;;;;11.00;5.60;;;;;;;14.69;54.94;100621.81;10438992;28;20246;-36
2023/09/30 21:06:58;;;;;;;6.97;5.17;;;;;;;13.83;56.89;100647.47;10438706;28;20586;-35
2023/09/30 21:12:00;;;;;;;9.70;6.00;;;;;;;14.64;55.42;100581.16;10420043;28;20286;-35
2023/09/30 21:17:02;;;;;;;9.53;5.50;;;;;;;14.29;55.46;100642.91;10388235;28;20396;-36
2023/09/30 21:22:04;;;;;;;8.13;4.97;;;;;;;14.14;56.20;100630.31;10397272;28;20783;-35
2023/09/30 21:27:06;;;;;;;8.80;5.73;;;;;;;14.16;56.24;100595.97;10394715;28;20331;-34
2023/09/30 21:32:08;;;;;;;8.93;5.30;;;;;;;14.39;55.53;100573.44;10396761;28;20228;-36
2023/09/30 21:37:10;;;;;;;9.93;6.47;;;;;;;14.40;55.58;100605.56;10394495;28;20729;-35
2023/09/30 21:42:11;;;;;;;7.40;4.93;;;;;;;14.51;55.14;100619.53;10376863;28;20240;-36
2023/09/30 21:47:13;;;;;;;7.77;4.83;;;;;;;13.85;56.14;100663.41;10391507;28;20313;-36
2023/09/30 21:52:15;;;;;;;10.13;4.87;;;;;;;14.84;54.60;100557.94;10376830;28;20252;-36
2023/09/30 21:57:18;;;;;;;9.73;5.63;;;;;;;14.75;54.49;100615.66;10397013;28;20591;-36
2023/09/30 22:02:20;;;;;;;8.80;5.80;;;;;;;14.63;54.72;100639.59;10395095;28;20236;-37
2023/09/30 22:07:25;;;;;;;8.17;4.87;;;;;;;16.33;51.02;100612.66;10395473;28;20240;-36
2023/09/30 22:12:27;;;;;;;9.27;5.20;;;;;;;17.16;49.15;100671.91;10375919;28;20958;-36
2023/09/30 22:17:29;;;;;;;9.47;5.17;;;;;;;14.27;54.49;100764.22;10393597;28;20229;-35
2023/09/30 22:22:31;;;;;;;6.30;4.33;;;;;;;17.30;48.81;100702.50;10397999;28;20299;-36
2023/09/30 22:27:33;;;;;;;8.13;5.00;;;;;;;16.51;49.19;100801.19;10395883;28;20244;-36
2023/09/30 22:32:35;;;;;;;8.17;5.20;;;;;;;17.01;48.42;100738.88;10395175;28;20240;-35
2023/09/30 22:37:37;;;;;;;9.30;5.03;;;;;;;16.75;48.38;100802.56;10395275;28;20367;-36
2023/09/30 22:42:39;;;;;;;8.00;5.00;;;;;;;16.99;47.74;100783.16;10394516;28;20962;-36
2023/09/30 22:47:45;;;;;;;7.33;5.20;;;;;;;16.40;49.34;100778.28;10394542;28;20236;-37
2023/09/30 22:52:48;;;;;;;9.67;5.43;;;;;;;16.33;49.03;100793.59;10393562;28;20667;-35
2023/09/30 22:57:53;;;;;;;6.67;4.50;;;;;;;16.92;47.32;100812.00;10394201;28;20232;-35
2023/09/30 23:02:57;;;;;;;6.33;4.80;;;;;;;16.99;47.32;100737.19;10392952;28;20240;-35
2023/09/30 23:08:00;;;;;;;8.90;4.93;;;;;;;16.57;48.51;100771.50;10458796;28;20231;-36
2023/09/30 23:13:02;;;;;;;6.87;4.73;;;;;;;17.07;47.48;100733.44;10457951;28;20203;-36
2023/09/30 23:18:04;;;;;;;6.53;4.40;;;;;;;16.51;47.85;100809.31;10477936;28;20341;-35